Time;durP1;ratioP1;P1;durP2;ratioP2;P2;SDS_P1;SDS_P2;PMS_P1;PMS_P2;Temp;Humidity;BMP_temperature;BMP_pressure;BME280_temperature;BME280_humidity;BME280_pressure;Samples;Min_cycle;Max_cycle;Signal;HPM_P1;HPM_P2
2023/05/11 00:01:47;;;;;;;6.50;5.90;;;11.30;51.40;;;;;;5037158;28;20531;-52
2023/05/11 00:04:14;;;;;;;8.43;6.60;;;11.40;47.30;;;;;;5028453;28;21315;-52
2023/05/11 00:06:40;;;;;;;10.53;6.50;;;11.30;47.90;;;;;;5023510;28;20550;-53
2023/05/11 00:09:08;;;;;;;6.67;6.07;;;11.20;50.80;;;;;;5029097;28;20875;-51
2023/05/11 00:11:36;;;;;;;6.27;5.77;;;11.20;47.60;;;;;;5011784;28;20483;-52
2023/05/11 00:14:03;;;;;;;7.63;6.70;;;11.20;48.60;;;;;;5022380;28;21055;-51
2023/05/11 00:16:29;;;;;;;6.97;6.37;;;11.20;47.20;;;;;;5030076;28;20466;-51
2023/05/11 00:18:56;;;;;;;6.77;5.97;;;11.10;55.10;;;;;;5035520;28;20505;-51
2023/05/11 00:21:22;;;;;;;6.43;5.83;;;11.10;56.90;;;;;;5031492;28;20537;-52
2023/05/11 00:23:49;;;;;;;7.93;6.50;;;11.00;57.30;;;;;;5030268;28;20550;-52
2023/05/11 00:26:16;;;;;;;6.93;6.33;;;10.90;48.90;;;;;;5031105;28;20479;-51
2023/05/11 00:28:44;;;;;;;6.97;5.83;;;11.00;48.00;;;;;;5028117;28;20542;-52
2023/05/11 00:31:10;;;;;;;6.23;5.83;;;10.90;51.80;;;;;;5030240;28;20636;-52
2023/05/11 00:33:37;;;;;;;7.53;6.83;;;10.90;45.10;;;;;;5029549;28;20550;-51
2023/05/11 00:36:04;;;;;;;12.10;6.60;;;10.90;47.70;;;;;;5030358;28;20487;-52
2023/05/11 00:38:31;;;;;;;7.23;6.07;;;10.90;50.90;;;;;;5028474;28;20548;-51
2023/05/11 00:40:57;;;;;;;7.47;6.77;;;10.80;47.00;;;;;;5030226;28;20467;-52
2023/05/11 00:43:24;;;;;;;6.43;5.90;;;10.80;41.80;;;;;;5028190;28;20549;-52
2023/05/11 00:45:52;;;;;;;10.20;6.23;;;10.80;41.70;;;;;;5030385;28;21261;-53
2023/05/11 00:48:18;;;;;;;8.50;6.60;;;10.80;41.80;;;;;;5031156;28;20545;-52
2023/05/11 00:50:46;;;;;;;8.70;5.50;;;10.80;42.60;;;;;;5033124;28;20550;-51
2023/05/11 00:53:13;;;;;;;9.10;6.23;;;10.70;49.50;;;;;;5032390;28;20558;-51
2023/05/11 00:55:40;;;;;;;6.37;5.77;;;10.70;48.40;;;;;;5032182;28;20568;-52
2023/05/11 00:58:07;;;;;;;8.30;6.20;;;10.70;48.30;;;;;;5031619;28;20945;-52
2023/05/11 01:00:35;;;;;;;8.90;6.33;;;10.60;48.10;;;;;;5029708;28;20669;-52
2023/05/11 01:03:03;;;;;;;10.33;7.20;;;10.60;50.20;;;;;;5030121;28;20466;-51
2023/05/11 01:05:36;;;;;;;6.50;5.90;;;10.60;49.70;;;;;;5031308;28;20935;-52
2023/05/11 01:08:11;;;;;;;7.07;6.43;;;10.60;46.70;;;;;;5025803;28;20517;-51
2023/05/11 01:10:42;;;;;;;7.57;6.30;;;10.50;47.40;;;;;;5030066;28;20549;-53
2023/05/11 01:13:25;;;;;;;6.70;6.23;;;10.50;46.10;;;;;;5023046;28;20554;-52
2023/05/11 01:15:55;;;;;;;10.00;6.73;;;10.50;44.70;;;;;;5031586;28;20558;-52
2023/05/11 01:18:26;;;;;;;7.40;6.80;;;10.40;43.20;;;;;;5031654;28;20462;-52
2023/05/11 01:20:56;;;;;;;6.17;5.57;;;10.40;41.80;;;;;;5032418;28;20864;-52
2023/05/11 01:23:53;;;;;;;6.50;5.83;;;10.50;43.30;;;;;;5031181;28;20558;-53
2023/05/11 01:26:43;;;;;;;6.50;6.00;;;10.40;45.40;;;;;;5029688;28;20571;-52
2023/05/11 01:29:36;;;;;;;7.87;7.17;;;10.40;47.50;;;;;;5028575;28;20537;-52
2023/05/11 01:32:08;;;;;;;6.33;5.73;;;10.30;45.70;;;;;;5027336;28;20558;-51
2023/05/11 01:34:39;;;;;;;6.77;6.27;;;10.30;45.60;;;;;;5030447;28;20554;-51
2023/05/11 01:37:10;;;;;;;6.60;5.90;;;10.20;46.80;;;;;;5024874;28;20506;-52
2023/05/11 01:39:42;;;;;;;7.30;6.67;;;10.20;45.70;;;;;;5031088;28;20537;-52
2023/05/11 01:42:10;;;;;;;9.90;6.20;;;10.20;44.10;;;;;;5029174;28;20542;-52
2023/05/11 01:44:39;;;;;;;6.60;6.10;;;10.10;44.80;;;;;;5033168;28;20482;-52
2023/05/11 01:47:08;;;;;;;9.73;6.00;;;10.10;44.20;;;;;;5032793;28;20570;-52
2023/05/11 01:49:38;;;;;;;7.27;6.67;;;10.10;45.20;;;;;;5031743;28;21014;-51
2023/05/11 01:52:06;;;;;;;6.73;6.13;;;10.10;44.60;;;;;;5031781;28;20463;-52
2023/05/11 01:54:34;;;;;;;6.50;5.77;;;10.10;45.90;;;;;;5040736;28;20548;-53
2023/05/11 01:57:02;;;;;;;8.20;6.10;;;10.00;48.00;;;;;;5025347;28;20585;-51
2023/05/11 01:59:31;;;;;;;7.07;6.50;;;9.80;45.20;;;;;;5028580;28;20578;-51
2023/05/11 02:01:58;;;;;;;7.63;7.03;;;9.80;44.40;;;;;;5033285;28;20483;-52
2023/05/11 02:04:28;;;;;;;6.70;6.20;;;9.80;44.90;;;;;;5031984;28;20497;-51
2023/05/11 02:06:56;;;;;;;7.03;6.40;;;9.80;44.20;;;;;;5030862;28;20581;-51
2023/05/11 02:09:24;;;;;;;6.67;6.00;;;9.80;44.50;;;;;;5032486;28;20895;-51
2023/05/11 02:11:52;;;;;;;6.13;5.67;;;9.70;45.90;;;;;;5026333;28;20945;-52
2023/05/11 02:14:22;;;;;;;7.70;7.00;;;9.70;46.90;;;;;;5039450;28;20493;-52
2023/05/11 02:16:50;;;;;;;6.50;6.00;;;9.60;48.40;;;;;;5044848;28;20470;-51
2023/05/11 02:19:17;;;;;;;8.77;7.33;;;9.60;47.60;;;;;;5045240;28;21138;-52
2023/05/11 02:21:47;;;;;;;7.73;6.83;;;9.50;46.80;;;;;;5038771;28;20443;-52
2023/05/11 02:24:15;;;;;;;6.67;6.07;;;9.50;48.50;;;;;;5030574;28;20495;-54
2023/05/11 02:26:42;;;;;;;6.90;6.47;;;9.50;46.70;;;;;;5034433;28;20487;-50
2023/05/11 02:29:08;;;;;;;10.60;6.53;;;9.50;47.50;;;;;;5030076;28;21191;-49
2023/05/11 02:31:42;;;;;;;6.93;6.43;;;9.50;47.50;;;;;;5032357;28;20549;-49
2023/05/11 02:34:19;;;;;;;11.20;6.23;;;9.50;47.70;;;;;;5035013;28;20593;-49
2023/05/11 02:36:48;;;;;;;8.40;6.70;;;9.50;47.90;;;;;;5029635;28;20573;-49
2023/05/11 02:39:21;;;;;;;6.80;6.20;;;9.50;47.40;;;;;;5027422;28;21031;-50
2023/05/11 02:41:54;;;;;;;8.50;7.70;;;9.50;48.40;;;;;;5030135;28;20461;-50
2023/05/11 02:44:23;;;;;;;8.53;7.53;;;9.50;49.50;;;;;;5031337;28;20549;-49
2023/05/11 02:46:51;;;;;;;8.40;6.90;;;9.50;48.30;;;;;;5033276;28;20518;-49
2023/05/11 02:49:22;;;;;;;7.43;6.87;;;9.50;47.30;;;;;;5029912;28;20572;-49
2023/05/11 02:51:52;;;;;;;10.43;7.70;;;9.50;46.70;;;;;;5030918;28;20549;-50
2023/05/11 02:54:20;;;;;;;11.57;7.67;;;9.50;47.90;;;;;;5029281;28;20586;-50
2023/05/11 02:56:46;;;;;;;8.10;7.30;;;9.50;48.00;;;;;;5031568;28;20573;-50
2023/05/11 02:59:14;;;;;;;7.80;7.10;;;9.40;48.10;;;;;;5027524;28;20525;-49
2023/05/11 03:01:40;;;;;;;8.93;8.13;;;9.40;47.00;;;;;;5029654;28;20549;-49
2023/05/11 03:04:07;;;;;;;7.80;7.17;;;9.40;45.90;;;;;;5030076;28;20541;-49
2023/05/11 03:06:35;;;;;;;9.40;8.57;;;9.40;46.20;;;;;;5029848;28;20561;-49
2023/05/11 03:09:03;;;;;;;10.97;7.37;;;9.40;45.80;;;;;;5029242;28;20551;-48
2023/05/11 03:11:30;;;;;;;9.23;8.17;;;9.40;42.10;;;;;;5033949;28;20542;-50
2023/05/11 03:13:58;;;;;;;8.93;8.13;;;9.40;41.90;;;;;;5028551;28;20459;-50
2023/05/11 03:16:25;;;;;;;12.63;8.23;;;9.40;41.80;;;;;;5033913;28;20487;-50
2023/05/11 03:18:54;;;;;;;9.00;8.10;;;9.50;40.50;;;;;;5030179;28;20546;-49
2023/05/11 03:21:23;;;;;;;8.43;7.83;;;9.50;39.40;;;;;;5029337;28;20497;-50
2023/05/11 03:23:50;;;;;;;12.33;8.00;;;9.50;38.30;;;;;;5028302;28;20507;-49
2023/05/11 03:26:20;;;;;;;9.50;8.67;;;9.60;37.80;;;;;;5030998;28;20553;-50
2023/05/11 03:28:48;;;;;;;9.63;8.87;;;9.50;38.00;;;;;;5026318;28;20570;-50
2023/05/11 03:31:15;;;;;;;9.27;8.27;;;9.50;39.40;;;;;;5022699;28;20490;-49
2023/05/11 03:33:42;;;;;;;8.87;8.07;;;9.50;40.50;;;;;;5030616;28;20554;-49
2023/05/11 03:36:10;;;;;;;9.10;8.30;;;9.60;39.90;;;;;;5021635;28;20551;-49
2023/05/11 03:38:38;;;;;;;12.07;8.23;;;9.60;40.20;;;;;;5027645;28;20495;-50
2023/05/11 03:41:05;;;;;;;9.77;8.50;;;9.60;40.30;;;;;;5030098;28;20522;-49
2023/05/11 03:43:35;;;;;;;8.27;7.53;;;9.70;38.90;;;;;;5024353;28;21241;-49
2023/05/11 03:46:03;;;;;;;14.60;8.27;;;9.70;38.90;;;;;;5021515;28;20498;-50
2023/05/11 03:48:31;;;;;;;8.40;7.70;;;9.70;38.30;;;;;;5027649;28;20957;-49
2023/05/11 03:50:57;;;;;;;8.40;7.60;;;9.80;38.90;;;;;;5027900;28;20490;-49
2023/05/11 03:53:25;;;;;;;15.00;7.73;;;9.80;39.30;;;;;;5031520;28;20490;-50
2023/05/11 03:55:51;;;;;;;9.50;7.80;;;9.90;40.00;;;;;;5030786;28;20485;-49
2023/05/11 03:58:18;;;;;;;8.53;7.27;;;9.90;41.70;;;;;;5028329;28;21047;-50
2023/05/11 04:00:46;;;;;;;7.60;7.00;;;10.00;41.20;;;;;;5029015;28;20577;-50
2023/05/11 04:03:13;;;;;;;7.77;6.57;;;10.10;40.00;;;;;;5029733;28;20546;-50
2023/05/11 04:05:40;;;;;;;7.40;6.70;;;10.10;41.50;;;;;;5032004;28;20510;-51
2023/05/11 04:08:07;;;;;;;8.20;7.47;;;10.10;41.80;;;;;;5029482;28;20505;-50
2023/05/11 04:10:33;;;;;;;7.57;6.57;;;10.20;43.60;;;;;;5029083;28;20463;-51
2023/05/11 04:13:00;;;;;;;7.47;6.87;;;10.30;45.20;;;;;;5026406;28;20477;-51
2023/05/11 04:15:27;;;;;;;8.07;6.87;;;10.30;45.70;;;;;;5026154;28;20554;-50
2023/05/11 04:17:55;;;;;;;8.03;7.40;;;10.30;46.70;;;;;;5028804;28;20513;-50
2023/05/11 04:20:21;;;;;;;7.33;6.70;;;10.30;47.40;;;;;;5026803;28;20574;-50
2023/05/11 04:22:48;;;;;;;8.13;7.50;;;10.40;47.90;;;;;;5031415;28;20566;-50
2023/05/11 04:25:15;;;;;;;10.20;7.03;;;10.40;48.20;;;;;;5029719;28;20489;-49
2023/05/11 04:27:41;;;;;;;7.40;6.70;;;10.50;49.70;;;;;;5032290;28;20490;-51
2023/05/11 04:30:09;;;;;;;7.60;6.33;;;10.60;54.40;;;;;;5032587;28;20453;-51
2023/05/11 04:32:35;;;;;;;7.43;6.40;;;10.70;56.70;;;;;;5024741;28;20549;-51
2023/05/11 04:35:03;;;;;;;6.83;6.30;;;10.80;63.10;;;;;;5028495;28;20901;-50
2023/05/11 04:37:30;;;;;;;7.13;6.40;;;10.90;67.60;;;;;;5027550;28;20574;-52
2023/05/11 04:39:57;;;;;;;9.70;6.70;;;11.00;70.40;;;;;;5028316;28;20462;-51
2023/05/11 04:42:23;;;;;;;8.57;6.47;;;11.10;76.20;;;;;;5029601;28;20498;-51
2023/05/11 04:44:53;;;;;;;6.73;5.60;;;11.20;81.30;;;;;;5032630;28;20545;-51
2023/05/11 04:47:20;;;;;;;11.63;5.97;;;11.30;85.60;;;;;;5031895;28;20513;-51
2023/05/11 04:49:46;;;;;;;5.90;5.40;;;11.30;88.00;;;;;;5032431;28;20975;-51
2023/05/11 04:52:14;;;;;;;6.27;5.70;;;11.50;98.80;;;;;;5032185;28;20546;-50
2023/05/11 04:54:41;;;;;;;9.40;5.67;;;11.60;99.90;;;;;;5028058;28;20489;-50
2023/05/11 04:57:07;;;;;;;6.90;5.50;;;11.80;99.90;;;;;;5032617;28;20564;-50
2023/05/11 04:59:34;;;;;;;8.80;5.50;;;11.80;99.90;;;;;;5033522;28;20892;-51
2023/05/11 05:02:01;;;;;;;5.53;5.03;;;11.90;99.90;;;;;;5031434;28;20485;-50
2023/05/11 05:04:27;;;;;;;9.33;5.20;;;12.10;99.90;;;;;;5024824;28;20478;-50
2023/05/11 05:06:54;;;;;;;5.70;5.10;;;12.30;99.90;;;;;;5030714;28;20572;-51
2023/05/11 05:09:21;;;;;;;5.60;5.10;;;12.40;99.90;;;;;;5037208;28;20538;-49
2023/05/11 05:11:48;;;;;;;7.53;5.90;;;12.50;99.90;;;;;;5034166;28;20529;-51
2023/05/11 05:14:15;;;;;;;5.10;4.30;;;12.60;99.90;;;;;;5036626;28;20506;-52
2023/05/11 05:16:41;;;;;;;9.40;5.97;;;12.70;99.90;;;;;;5033056;28;20912;-52
2023/05/11 05:19:08;;;;;;;13.53;6.67;;;12.80;99.90;;;;;;5036620;28;20486;-52
2023/05/11 05:21:35;;;;;;;5.30;4.80;;;12.90;99.90;;;;;;5031612;28;20537;-52
2023/05/11 05:24:02;;;;;;;8.40;6.07;;;13.00;99.90;;;;;;5031332;28;20467;-51
2023/05/11 05:26:30;;;;;;;6.20;5.60;;;13.10;99.90;;;;;;5032133;28;20490;-51
2023/05/11 05:28:56;;;;;;;10.93;5.70;;;13.20;99.90;;;;;;5032915;28;20546;-51
2023/05/11 05:31:24;;;;;;;5.97;5.33;;;13.30;99.90;;;;;;5029766;28;20538;-49
2023/05/11 05:33:50;;;;;;;9.47;5.83;;;13.40;20.00;;;;;;5031290;28;20498;-50
2023/05/11 05:36:17;;;;;;;10.60;5.97;;;13.40;33.50;;;;;;5029243;28;20553;-52
2023/05/11 05:38:43;;;;;;;11.70;5.27;;;13.50;23.20;;;;;;5029969;28;20524;-51
2023/05/11 05:41:10;;;;;;;10.60;5.47;;;13.60;99.90;;;;;;5032086;28;20927;-51
2023/05/11 05:43:38;;;;;;;8.40;5.30;;;13.60;31.60;;;;;;5030704;28;21188;-52
2023/05/11 05:46:04;;;;;;;4.77;4.37;;;13.70;24.30;;;;;;5030656;28;20497;-52
2023/05/11 05:48:31;;;;;;;7.53;4.40;;;13.70;99.90;;;;;;5032184;28;20471;-52
2023/05/11 05:50:59;;;;;;;5.90;4.80;;;13.80;99.90;;;;;;5032819;28;20459;-50
2023/05/11 05:53:25;;;;;;;7.27;5.20;;;13.90;25.90;;;;;;5032743;28;20466;-53
2023/05/11 05:55:52;;;;;;;15.43;5.37;;;14.00;24.80;;;;;;5033257;28;20546;-53
2023/05/11 05:58:18;;;;;;;11.97;5.10;;;14.10;33.50;;;;;;5033076;28;20545;-51
2023/05/11 06:00:46;;;;;;;12.53;5.20;;;14.20;52.90;;;;;;5032715;28;20614;-51
2023/05/11 06:03:13;;;;;;;6.93;5.40;;;14.20;47.20;;;;;;5030475;28;20904;-52
2023/05/11 06:05:39;;;;;;;6.03;4.67;;;14.30;31.30;;;;;;5025802;28;20546;-51
2023/05/11 06:08:06;;;;;;;7.70;4.07;;;14.50;44.20;;;;;;5032526;28;20546;-50
2023/05/11 06:10:32;;;;;;;6.87;5.80;;;14.50;70.70;;;;;;5032961;28;21040;-52
2023/05/11 06:12:59;;;;;;;4.93;4.63;;;14.60;70.00;;;;;;5035968;28;20465;-51
2023/05/11 06:15:25;;;;;;;8.83;4.53;;;14.60;72.80;;;;;;5042395;28;20470;-52
2023/05/11 06:17:53;;;;;;;6.63;4.60;;;14.70;83.30;;;;;;5041406;28;20532;-52
2023/05/11 06:20:20;;;;;;;4.70;4.27;;;14.80;95.70;;;;;;5041768;28;20504;-51
2023/05/11 06:22:46;;;;;;;6.90;4.90;;;14.90;99.90;;;;;;5044769;28;20454;-52
2023/05/11 06:25:13;;;;;;;5.90;4.83;;;14.90;99.90;;;;;;5033247;28;20545;-51
2023/05/11 06:27:40;;;;;;;5.77;4.87;;;14.90;99.90;;;;;;5032367;28;20493;-51
2023/05/11 06:30:07;;;;;;;5.53;4.70;;;15.00;99.90;;;;;;5031031;28;20559;-52
2023/05/11 06:32:34;;;;;;;5.13;4.50;;;15.10;99.90;;;;;;5032714;28;21013;-51
2023/05/11 06:35:02;;;;;;;4.57;4.10;;;15.10;99.90;;;;;;5033256;28;20581;-52
2023/05/11 06:37:29;;;;;;;9.37;4.50;;;15.30;99.90;;;;;;5030957;28;20573;-52
2023/05/11 06:39:55;;;;;;;8.20;4.10;;;15.30;99.90;;;;;;5032492;28;20541;-52
2023/05/11 06:42:22;;;;;;;7.70;5.20;;;15.50;99.90;;;;;;5032425;28;20483;-52
2023/05/11 06:44:49;;;;;;;7.60;4.33;;;15.50;99.90;;;;;;5031579;28;20542;-52
2023/05/11 06:47:15;;;;;;;7.37;4.47;;;15.70;99.90;;;;;;5032164;28;20558;-52
2023/05/11 06:49:42;;;;;;;5.33;4.50;;;15.80;45.50;;;;;;5032822;28;20478;-53
2023/05/11 06:52:10;;;;;;;14.60;3.73;;;16.00;54.30;;;;;;5028580;28;20459;-52
2023/05/11 06:54:36;;;;;;;4.10;3.73;;;16.10;43.30;;;;;;5025776;28;21061;-59
2023/05/11 06:57:03;;;;;;;7.10;4.20;;;16.20;75.60;;;;;;5015944;28;20908;-51
2023/05/11 06:59:31;;;;;;;8.20;4.23;;;16.20;82.50;;;;;;5020182;28;20462;-51
2023/05/11 07:01:57;;;;;;;6.40;4.80;;;16.20;96.60;;;;;;5031096;28;20570;-51
2023/05/11 07:04:24;;;;;;;4.33;3.80;;;16.20;99.90;;;;;;5030660;28;20554;-51
2023/05/11 07:06:51;;;;;;;5.10;4.50;;;16.40;99.90;;;;;;5030058;28;20861;-52
2023/05/11 07:09:18;;;;;;;7.27;4.20;;;16.60;99.90;;;;;;5030264;28;21037;-52
2023/05/11 07:11:45;;;;;;;7.97;4.47;;;16.70;99.90;;;;;;5024622;28;20539;-52
2023/05/11 07:14:11;;;;;;;12.00;4.63;;;16.80;99.90;;;;;;5030641;28;20538;-53
2023/05/11 07:16:39;;;;;;;8.20;4.40;;;17.10;99.90;;;;;;5026392;28;20573;-52
2023/05/11 07:19:07;;;;;;;6.30;3.70;;;17.10;99.90;;;;;;5027775;28;20467;-52
2023/05/11 07:21:34;;;;;;;8.77;3.80;;;17.40;99.90;;;;;;5030046;28;20486;-52
2023/05/11 07:24:00;;;;;;;5.10;4.60;;;17.40;99.90;;;;;;5027365;28;20540;-51
2023/05/11 07:26:28;;;;;;;16.73;4.83;;;17.40;99.90;;;;;;5029287;28;20486;-52
2023/05/11 07:28:55;;;;;;;14.80;4.17;;;17.40;99.90;;;;;;5026458;28;20494;-54
2023/05/11 07:31:22;;;;;;;6.30;4.00;;;17.50;99.90;;;;;;5026883;28;20546;-51
2023/05/11 07:33:48;;;;;;;4.20;3.57;;;17.40;99.90;;;;;;5036207;28;20486;-52
2023/05/11 07:36:15;;;;;;;4.00;3.70;;;17.50;99.90;;;;;;5036920;28;20479;-53
2023/05/11 07:38:41;;;;;;;3.80;3.50;;;17.50;99.90;;;;;;5034517;28;20483;-52
2023/05/11 07:41:08;;;;;;;14.70;4.10;;;17.50;99.90;;;;;;5037319;28;20525;-52
2023/05/11 07:43:36;;;;;;;4.23;3.80;;;17.70;99.90;;;;;;5029878;28;20562;-52
2023/05/11 07:46:03;;;;;;;4.93;3.63;;;17.70;99.90;;;;;;5026808;28;20574;-52
2023/05/11 07:48:29;;;;;;;8.00;3.10;;;17.90;99.90;;;;;;5031133;28;20475;-51
2023/05/11 07:50:56;;;;;;;8.00;3.53;;;18.00;99.90;;;;;;5031348;28;20479;-52
2023/05/11 07:53:22;;;;;;;6.33;3.50;;;18.10;99.90;;;;;;5032021;28;20493;-52
2023/05/11 07:55:49;;;;;;;3.30;2.77;;;18.30;99.90;;;;;;5034599;28;21051;-51
2023/05/11 07:58:15;;;;;;;4.73;3.30;;;18.40;99.90;;;;;;5034471;28;20545;-52
2023/05/11 08:00:43;;;;;;;4.70;3.40;;;18.20;99.90;;;;;;5034456;28;20553;-52
2023/05/11 08:03:09;;;;;;;7.93;3.70;;;18.40;99.90;;;;;;5034354;28;20578;-52
2023/05/11 08:05:36;;;;;;;4.33;3.27;;;18.30;99.90;;;;;;5031054;28;20467;-52
2023/05/11 08:08:03;;;;;;;3.47;2.87;;;18.50;99.90;;;;;;5033348;28;20532;-51
2023/05/11 08:10:30;;;;;;;7.97;3.07;;;18.60;99.90;;;;;;5034257;28;20542;-52
2023/05/11 08:12:57;;;;;;;7.00;3.47;;;18.80;99.90;;;;;;5036415;28;20482;-54
2023/05/11 08:15:23;;;;;;;7.57;3.30;;;19.00;99.90;;;;;;5044900;28;20523;-52
2023/05/11 08:17:51;;;;;;;3.43;3.10;;;19.20;99.90;;;;;;5046905;28;20532;-52
2023/05/11 08:20:18;;;;;;;3.90;3.33;;;19.40;99.90;;;;;;5046456;28;20490;-53
2023/05/11 08:22:45;;;;;;;3.87;3.13;;;19.50;99.90;;;;;;5042867;28;20561;-52
2023/05/11 08:25:12;;;;;;;10.40;2.80;;;19.60;99.90;;;;;;5032149;28;20469;-52
2023/05/11 08:27:39;;;;;;;11.30;3.50;;;19.80;99.90;;;;;;5034919;28;20482;-51
2023/05/11 08:30:08;;;;;;;4.20;3.10;;;19.50;99.90;;;;;;5033780;28;20540;-52
2023/05/11 08:32:35;;;;;;;3.10;2.90;;;19.70;99.90;;;;;;5032814;28;20478;-52
2023/05/11 08:35:03;;;;;;;10.50;3.10;;;19.70;99.90;;;;;;5034760;28;20446;-52
2023/05/11 08:37:29;;;;;;;7.70;3.23;;;19.90;99.90;;;;;;5031362;28;21019;-52
2023/05/11 08:39:56;;;;;;;3.27;2.83;;;19.90;99.90;;;;;;5034283;28;20494;-51
2023/05/11 08:42:24;;;;;;;7.60;3.23;;;20.10;99.90;;;;;;5032436;28;21094;-52
2023/05/11 08:44:55;;;;;;;2.70;2.50;;;20.30;99.90;;;;;;5031632;28;20466;-52
2023/05/11 08:47:21;;;;;;;6.70;2.80;;;20.30;99.90;;;;;;5029586;28;20482;-52
2023/05/11 08:49:48;;;;;;;3.97;3.47;;;20.30;99.90;;;;;;5032329;28;20546;-52
2023/05/11 08:52:17;;;;;;;11.03;2.80;;;20.40;99.90;;;;;;5033614;28;20546;-53
2023/05/11 08:54:43;;;;;;;3.17;2.83;;;20.60;99.90;;;;;;5031850;28;20546;-52
2023/05/11 08:57:11;;;;;;;2.83;2.63;;;21.10;99.90;;;;;;5032282;28;20593;-52
2023/05/11 08:59:39;;;;;;;5.03;3.40;;;21.70;99.90;;;;;;5030736;28;20553;-52
2023/05/11 09:02:06;;;;;;;3.20;3.00;;;22.60;99.90;;;;;;5032269;28;21103;-49
2023/05/11 09:04:34;;;;;;;4.93;3.00;;;22.40;99.90;;;;;;5030875;28;20554;-49
2023/05/11 09:07:01;;;;;;;8.33;3.80;;;23.70;99.90;;;;;;5031762;28;20540;-49
2023/05/11 09:09:28;;;;;;;10.17;2.83;;;23.30;99.90;;;;;;5029757;28;20497;-55
2023/05/11 09:11:55;;;;;;;6.63;2.60;;;23.50;99.90;;;;;;5034516;28;20549;-55
2023/05/11 09:14:22;;;;;;;3.57;2.20;;;22.40;99.90;;;;;;5039245;28;20506;-55
2023/05/11 09:16:49;;;;;;;15.43;2.60;;;23.10;99.90;;;;;;5036009;28;20573;-54
2023/05/11 09:19:16;;;;;;;3.00;2.80;;;22.80;99.90;;;;;;5038108;28;20549;-49
2023/05/11 09:21:43;;;;;;;3.67;2.30;;;23.20;99.90;;;;;;5037931;28;20478;-56
2023/05/11 09:24:12;;;;;;;20.10;3.60;;;23.50;99.90;;;;;;5032962;28;21055;-48
2023/05/11 09:26:40;;;;;;;4.90;2.80;;;22.30;99.90;;;;;;5025937;28;20493;-49
2023/05/11 09:29:07;;;;;;;3.03;2.73;;;23.50;99.90;;;;;;5031687;28;21046;-55
2023/05/11 09:31:37;;;;;;;9.03;2.40;;;23.70;99.90;;;;;;5027946;28;20538;-49
2023/05/11 09:34:12;;;;;;;4.30;2.27;;;23.30;99.90;;;;;;5028354;28;20478;-49
2023/05/11 09:36:39;;;;;;;3.43;2.20;;;23.80;99.90;;;;;;5032121;28;21062;-49
2023/05/11 09:39:06;;;;;;;11.23;2.30;;;23.30;99.90;;;;;;5031168;28;20559;-48
2023/05/11 09:41:33;;;;;;;5.80;2.23;;;24.00;99.90;;;;;;5031410;28;20498;-49
2023/05/11 09:44:09;;;;;;;2.60;2.30;;;23.30;99.90;;;;;;5032574;28;20526;-48
2023/05/11 09:46:37;;;;;;;4.07;3.07;;;23.50;99.90;;;;;;5028297;28;20571;-49
2023/05/11 09:49:05;;;;;;;2.60;2.20;;;24.10;99.90;;;;;;5056582;22;20600;-52
2023/05/11 09:51:33;;;;;;;11.10;2.90;;;24.30;99.90;;;;;;5049300;28;20482;-52
2023/05/11 09:54:01;;;;;;;2.50;2.33;;;24.70;99.90;;;;;;5052093;28;20496;-52
2023/05/11 09:56:46;;;;;;;2.80;2.30;;;24.40;99.90;;;;;;5052094;28;20468;-53
2023/05/11 09:59:15;;;;;;;4.80;2.13;;;24.90;99.90;;;;;;5047795;28;20483;-50
2023/05/11 10:01:41;;;;;;;5.10;2.60;;;24.50;99.90;;;;;;5043666;28;20558;-52
2023/05/11 10:04:08;;;;;;;5.90;1.80;;;24.80;99.90;;;;;;5050273;28;20545;-53
2023/05/11 10:06:44;;;;;;;3.33;2.23;;;24.70;99.90;;;;;;5052029;28;20482;-52
2023/05/11 10:09:11;;;;;;;2.07;1.87;;;24.30;99.90;;;;;;5051714;28;20477;-52
2023/05/11 10:11:41;;;;;;;6.80;2.40;;;23.30;99.90;;;;;;5049521;28;20500;-51
2023/05/11 10:14:08;;;;;;;15.70;2.10;;;22.10;99.90;;;;;;5050071;28;20975;-51
2023/05/11 10:16:36;;;;;;;2.10;1.90;;;23.60;99.90;;;;;;5046021;28;20462;-52
2023/05/11 10:19:03;;;;;;;2.93;2.30;;;24.40;99.90;;;;;;5045779;28;20568;-51
2023/05/11 10:21:30;;;;;;;14.97;2.00;;;24.30;99.90;;;;;;5049153;28;21162;-51
2023/05/11 10:23:58;;;;;;;1.80;1.60;;;24.00;99.90;;;;;;5051662;28;20486;-52
2023/05/11 10:26:26;;;;;;;2.60;2.10;;;23.20;99.90;;;;;;5046938;28;20469;-52
2023/05/11 10:28:52;;;;;;;9.30;1.87;;;22.60;99.90;;;;;;5044997;28;20481;-52
2023/05/11 10:31:22;;;;;;;1.60;1.53;;;22.30;99.90;;;;;;5048754;28;20541;-52
2023/05/11 10:33:51;;;;;;;2.23;1.50;;;22.00;99.90;;;;;;5042297;28;20461;-52
2023/05/11 10:36:18;;;;;;;2.37;2.27;;;22.90;99.90;;;;;;5047413;28;20458;-51
2023/05/11 10:38:45;;;;;;;9.10;2.00;;;23.40;99.90;;;;;;5043720;28;20486;-52
2023/05/11 10:41:25;;;;;;;1.87;1.77;;;23.20;99.90;;;;;;5044114;28;20471;-52
2023/05/11 10:44:13;;;;;;;6.87;2.17;;;22.90;99.90;;;;;;5046777;28;20501;-52
2023/05/11 10:46:56;;;;;;;3.00;1.87;;;23.00;99.90;;;;;;5046571;28;20464;-52
2023/05/11 10:49:41;;;;;;;1.90;1.80;;;23.30;99.90;;;;;;5049286;28;21046;-52
2023/05/11 10:52:22;;;;;;;4.13;2.43;;;23.20;99.90;;;;;;5049682;28;21039;-51
2023/05/11 10:55:05;;;;;;;1.83;1.70;;;22.10;99.90;;;;;;5049655;28;21062;-51
2023/05/11 10:57:43;;;;;;;4.90;1.93;;;23.30;99.90;;;;;;5046101;28;20493;-51
2023/05/11 11:00:42;;;;;;;5.47;1.80;;;24.20;99.90;;;;;;5041285;28;20466;-52
2023/05/11 11:03:10;;;;;;;1.90;1.80;;;25.60;99.90;;;;;;5045036;28;20482;-52
2023/05/11 11:05:38;;;;;;;8.23;1.63;;;26.00;99.90;;;;;;5047969;28;20463;-52
2023/05/11 11:08:07;;;;;;;6.83;1.57;;;25.70;99.90;;;;;;5049442;28;20564;-51
2023/05/11 11:10:35;;;;;;;3.87;2.20;;;24.50;99.90;;;;;;5052054;28;20450;-52
2023/05/11 11:13:07;;;;;;;2.17;1.80;;;26.10;99.90;;;;;;5052013;28;20515;-51
2023/05/11 11:16:07;;;;;;;1.80;1.60;;;27.00;99.90;;;;;;5049570;28;20466;-52
2023/05/11 11:18:34;;;;;;;2.23;2.03;;;25.30;99.90;;;;;;5041501;28;20518;-53
2023/05/11 11:21:03;;;;;;;2.87;1.70;;;23.30;99.90;;;;;;5043262;28;20514;-51
2023/05/11 11:23:43;;;;;;;3.13;2.00;;;23.40;99.90;;;;;;5049646;28;20486;-51
2023/05/11 11:26:12;;;;;;;7.90;2.00;;;23.30;99.90;;;;;;5048520;28;20542;-52
2023/05/11 11:29:08;;;;;;;6.10;1.90;;;22.90;99.90;;;;;;5052131;28;20466;-51
2023/05/11 11:31:36;;;;;;;1.93;1.83;;;22.80;99.90;;;;;;5050260;28;20929;-52
2023/05/11 11:34:31;;;;;;;6.83;1.80;;;22.80;99.90;;;;;;5036487;28;20458;-53
2023/05/11 11:37:07;;;;;;;5.43;1.90;;;22.90;99.90;;;;;;5045453;28;20542;-52
2023/05/11 11:39:53;;;;;;;1.63;1.50;;;23.10;99.90;;;;;;5045171;28;20485;-51
2023/05/11 11:42:33;;;;;;;2.33;2.13;;;23.10;99.90;;;;;;5043683;28;20490;-52
2023/05/11 11:45:28;;;;;;;5.00;1.70;;;22.70;99.90;;;;;;5033957;28;20465;-52
2023/05/11 11:48:09;;;;;;;8.60;2.10;;;22.70;99.90;;;;;;5048452;28;20544;-53
2023/05/11 11:50:36;;;;;;;1.80;1.70;;;22.60;99.90;;;;;;5047386;28;20490;-53
2023/05/11 11:53:04;;;;;;;2.57;2.00;;;22.40;99.90;;;;;;5040142;28;20454;-53
2023/05/11 11:55:50;;;;;;;2.13;2.03;;;22.10;99.90;;;;;;5049279;28;20542;-53
2023/05/11 11:58:54;;;;;;;2.97;2.37;;;21.90;99.90;;;;;;5047712;28;20854;-51
2023/05/11 12:01:22;;;;;;;4.33;2.23;;;21.30;99.90;;;;;;5046797;28;20457;-52
2023/05/11 12:04:11;;;;;;;2.00;1.90;;;21.10;99.90;;;;;;5049600;28;20572;-51
2023/05/11 12:06:38;;;;;;;3.00;2.20;;;21.00;99.90;;;;;;5049980;28;20469;-51
2023/05/11 12:09:07;;;;;;;3.33;2.07;;;21.00;99.90;;;;;;5045443;28;20485;-51
2023/05/11 12:11:34;;;;;;;2.40;1.80;;;21.20;99.90;;;;;;5043196;28;20959;-52
2023/05/11 12:14:01;;;;;;;6.00;2.43;;;20.90;99.90;;;;;;5047482;28;21017;-51
2023/05/11 12:16:28;;;;;;;4.67;2.20;;;21.20;99.90;;;;;;5048299;28;20549;-53
2023/05/11 12:18:56;;;;;;;4.63;2.57;;;20.90;99.90;;;;;;5048931;28;20573;-52
2023/05/11 12:21:26;;;;;;;15.20;2.50;;;21.50;99.90;;;;;;5051117;28;20473;-53
2023/05/11 12:23:53;;;;;;;7.40;2.13;;;22.10;99.90;;;;;;5049824;28;20477;-52
2023/05/11 12:26:23;;;;;;;4.87;1.93;;;21.70;99.90;;;;;;5044567;28;20829;-52
2023/05/11 12:28:51;;;;;;;2.93;2.10;;;21.70;99.90;;;;;;5047319;28;20572;-52
2023/05/11 12:31:18;;;;;;;3.37;2.07;;;21.70;99.90;;;;;;5044934;28;20554;-51
2023/05/11 12:33:45;;;;;;;3.23;2.20;;;21.90;99.90;;;;;;5044825;28;20546;-53
2023/05/11 12:36:15;;;;;;;10.20;2.13;;;21.90;99.90;;;;;;5049098;28;20454;-54
2023/05/11 12:38:44;;;;;;;7.33;1.57;;;21.40;99.90;;;;;;5047319;28;20489;-53
2023/05/11 12:41:11;;;;;;;2.73;1.60;;;21.30;99.90;;;;;;5050175;28;20507;-52
2023/05/11 12:43:39;;;;;;;1.63;1.60;;;21.30;99.90;;;;;;5049260;28;20573;-53
2023/05/11 12:46:05;;;;;;;12.00;2.23;;;21.60;99.90;;;;;;5051802;28;20489;-54
2023/05/11 12:48:32;;;;;;;7.97;1.90;;;21.60;99.90;;;;;;5051202;28;20584;-53
2023/05/11 12:50:59;;;;;;;4.40;2.07;;;21.60;99.90;;;;;;5049943;28;20553;-53
2023/05/11 12:53:26;;;;;;;3.53;2.00;;;21.80;99.90;;;;;;5051645;28;20476;-53
2023/05/11 12:55:59;;;;;;;2.63;2.13;;;22.00;99.90;;;;;;5043772;28;20585;-53
2023/05/11 12:58:26;;;;;;;3.80;2.50;;;22.30;99.90;;;;;;5048153;28;20513;-52